Campsie, Alberta

Past 24 Hour Conditions

This table is a summary of hourly weather conditions for the past 24 hours. This summary includes the following parameters: temperature, humidity, dew point, wind speed and direction, air pressure, visibility and/or wind chill and humidex.
Date / Time
(MDT)
Conditions Temp (°F) Humidity (%) Dew Point (°F) Wind (mph) Pressure (inches) Vis (mi) Wind Chill
17 April 2014
15:00 N/A 31   82 26 E 10 29.9 N/A 23
14:00 N/A 31   81 26 E 10 29.9 N/A 22
13:00 N/A 31   80 26 ESE 10 29.9 N/A 23
12:00 N/A 31   84 27 ESE 6 29.9 N/A 25
11:00 N/A 31   86 27 ESE 6 29.9 N/A 24
10:00 N/A 30 88 27 ESE 6 29.9 N/A 24
9:00 N/A 29 93 27 ESE 6 29.9 N/A 23
8:00 N/A 29 96 28 ESE 5 29.9 N/A 23
7:00 N/A 29 98 28 E 3 29.9 N/A 25
6:00 N/A 28   98 28 NE 2 29.9 N/A 26
5:00 N/A 28   97 28 E 3 29.9 N/A 25
4:00 N/A 28   98 27 E 3 29.9 N/A 25
3:00 N/A 28   98 27 E 2 30.0 N/A 26
2:00 N/A 28   98 27 ESE 5 30.0 N/A 22
1:00 N/A 28   98 28 ESE 8 30.0 N/A 20
00:00 N/A 28   98 28 E 6 30.0 N/A 22
16 April 2014
23:00 N/A 29 97 28 SE 6 30.0 N/A 23
22:00 N/A 29 97 28 SE 4 30.1 N/A 25
21:00 N/A 30 95 28 SSE 4 30.1 N/A 26
20:00 N/A 30 97 29 SE 4 30.1 N/A 26
19:00 N/A 31   92 29 ENE 3 30.1 N/A 28
18:00 N/A 30 95 29 calm 30.1 N/A *
17:00 N/A 30 91 28 ENE 3 30.1 N/A 27
16:00 N/A 31   89 28 calm 30.1 N/A *
15:00 N/A 30 90 28 NW 6 30.1 N/A 24
N/A
Not available
 ↑ 
Highest temperature
 ↓ 
Lowest temperature
*
Value not significant.

If you require additional historical weather information, please visit Climate Data Online.